Metar z pełnej godziny Komunikat METAR ze strony awiacja.imgw.pl Metar G00 EPGD METAR EPGD 200400Z 27017KT 9999 FEW004 BKN010 03/02 Q1009 =